sensor_id;sensor_type;location;lat;lon;timestamp;P1;durP1;ratioP1;P2;durP2;ratioP2
57395;SDS011;43222;52.912;6.940;2022-07-17T00:00:42;6.97;;;2.35;;
57395;SDS011;43222;52.912;6.940;2022-07-17T00:03:10;7.20;;;2.38;;
57395;SDS011;43222;52.912;6.940;2022-07-17T00:05:36;9.18;;;2.35;;
57395;SDS011;43222;52.912;6.940;2022-07-17T00:08:02;9.15;;;2.25;;
57395;SDS011;43222;52.912;6.940;2022-07-17T00:10:28;7.30;;;2.22;;
57395;SDS011;43222;52.912;6.940;2022-07-17T00:12:54;9.15;;;2.33;;
57395;SDS011;43222;52.912;6.940;2022-07-17T00:15:20;8.35;;;2.33;;
57395;SDS011;43222;52.912;6.940;2022-07-17T00:17:46;6.97;;;2.03;;
57395;SDS011;43222;52.912;6.940;2022-07-17T00:20:13;9.90;;;2.35;;
57395;SDS011;43222;52.912;6.940;2022-07-17T00:22:39;7.90;;;2.30;;
57395;SDS011;43222;52.912;6.940;2022-07-17T00:25:07;8.82;;;2.15;;
57395;SDS011;43222;52.912;6.940;2022-07-17T00:27:33;8.35;;;2.40;;
57395;SDS011;43222;52.912;6.940;2022-07-17T00:29:59;6.93;;;2.17;;
57395;SDS011;43222;52.912;6.940;2022-07-17T00:32:25;7.80;;;2.33;;
57395;SDS011;43222;52.912;6.940;2022-07-17T00:34:51;9.15;;;2.33;;
57395;SDS011;43222;52.912;6.940;2022-07-17T00:37:17;8.50;;;2.33;;
57395;SDS011;43222;52.912;6.940;2022-07-17T00:39:43;10.63;;;2.40;;
57395;SDS011;43222;52.912;6.940;2022-07-17T00:42:10;8.10;;;2.17;;
57395;SDS011;43222;52.912;6.940;2022-07-17T00:44:37;7.80;;;2.22;;
57395;SDS011;43222;52.912;6.940;2022-07-17T00:47:09;6.50;;;2.25;;
57395;SDS011;43222;52.912;6.940;2022-07-17T00:49:35;6.93;;;2.35;;
57395;SDS011;43222;52.912;6.940;2022-07-17T00:52:01;5.88;;;1.98;;
57395;SDS011;43222;52.912;6.940;2022-07-17T00:54:27;6.28;;;2.10;;
57395;SDS011;43222;52.912;6.940;2022-07-17T00:56:53;10.15;;;2.38;;
57395;SDS011;43222;52.912;6.940;2022-07-17T00:59:20;9.73;;;2.38;;
57395;SDS011;43222;52.912;6.940;2022-07-17T01:01:47;9.25;;;2.28;;
57395;SDS011;43222;52.912;6.940;2022-07-17T01:04:13;7.82;;;2.03;;
57395;SDS011;43222;52.912;6.940;2022-07-17T01:06:39;7.80;;;2.15;;
57395;SDS011;43222;52.912;6.940;2022-07-17T01:09:05;9.73;;;2.15;;
57395;SDS011;43222;52.912;6.940;2022-07-17T01:11:35;7.82;;;2.10;;
57395;SDS011;43222;52.912;6.940;2022-07-17T01:14:01;7.97;;;2.00;;
57395;SDS011;43222;52.912;6.940;2022-07-17T01:16:27;8.00;;;1.95;;
57395;SDS011;43222;52.912;6.940;2022-07-17T01:18:53;6.43;;;1.90;;
57395;SDS011;43222;52.912;6.940;2022-07-17T01:21:19;9.73;;;2.03;;
57395;SDS011;43222;52.912;6.940;2022-07-17T01:23:45;5.60;;;2.10;;
57395;SDS011;43222;52.912;6.940;2022-07-17T01:26:11;6.28;;;1.90;;
57395;SDS011;43222;52.912;6.940;2022-07-17T01:28:37;6.10;;;1.83;;
57395;SDS011;43222;52.912;6.940;2022-07-17T01:31:03;8.45;;;2.13;;
57395;SDS011;43222;52.912;6.940;2022-07-17T01:33:29;8.63;;;1.98;;
57395;SDS011;43222;52.912;6.940;2022-07-17T01:35:55;10.90;;;2.28;;
57395;SDS011;43222;52.912;6.940;2022-07-17T01:38:21;8.57;;;2.00;;
57395;SDS011;43222;52.912;6.940;2022-07-17T01:40:47;7.30;;;2.40;;
57395;SDS011;43222;52.912;6.940;2022-07-17T01:43:13;5.97;;;2.15;;
57395;SDS011;43222;52.912;6.940;2022-07-17T01:45:39;5.95;;;2.20;;
57395;SDS011;43222;52.912;6.940;2022-07-17T01:48:05;7.13;;;2.20;;
57395;SDS011;43222;52.912;6.940;2022-07-17T01:50:32;6.95;;;2.00;;
57395;SDS011;43222;52.912;6.940;2022-07-17T01:52:58;5.53;;;1.67;;
57395;SDS011;43222;52.912;6.940;2022-07-17T01:55:24;5.80;;;2.03;;
57395;SDS011;43222;52.912;6.940;2022-07-17T01:57:50;5.68;;;1.80;;
57395;SDS011;43222;52.912;6.940;2022-07-17T02:00:17;6.90;;;2.10;;
57395;SDS011;43222;52.912;6.940;2022-07-17T02:02:43;6.47;;;2.38;;
57395;SDS011;43222;52.912;6.940;2022-07-17T02:05:10;7.00;;;2.33;;
57395;SDS011;43222;52.912;6.940;2022-07-17T02:07:36;6.85;;;2.63;;
57395;SDS011;43222;52.912;6.940;2022-07-17T02:10:05;5.55;;;2.22;;
57395;SDS011;43222;52.912;6.940;2022-07-17T02:12:31;11.10;;;2.80;;
57395;SDS011;43222;52.912;6.940;2022-07-17T02:14:57;5.70;;;2.58;;
57395;SDS011;43222;52.912;6.940;2022-07-17T02:17:23;7.43;;;2.50;;
57395;SDS011;43222;52.912;6.940;2022-07-17T02:19:49;9.30;;;2.92;;
57395;SDS011;43222;52.912;6.940;2022-07-17T02:22:15;7.28;;;2.70;;
57395;SDS011;43222;52.912;6.940;2022-07-17T02:24:41;8.98;;;2.67;;
57395;SDS011;43222;52.912;6.940;2022-07-17T02:27:07;15.30;;;2.78;;
57395;SDS011;43222;52.912;6.940;2022-07-17T02:29:33;13.82;;;2.70;;
57395;SDS011;43222;52.912;6.940;2022-07-17T02:31:59;7.53;;;2.55;;
57395;SDS011;43222;52.912;6.940;2022-07-17T02:34:25;7.70;;;2.05;;
57395;SDS011;43222;52.912;6.940;2022-07-17T02:36:51;5.93;;;2.20;;
57395;SDS011;43222;52.912;6.940;2022-07-17T02:39:17;6.80;;;2.22;;
57395;SDS011;43222;52.912;6.940;2022-07-17T02:41:43;7.07;;;2.33;;
57395;SDS011;43222;52.912;6.940;2022-07-17T02:44:09;5.10;;;2.10;;
57395;SDS011;43222;52.912;6.940;2022-07-17T02:46:35;6.60;;;2.65;;
57395;SDS011;43222;52.912;6.940;2022-07-17T02:49:01;6.05;;;2.05;;
57395;SDS011;43222;52.912;6.940;2022-07-17T02:51:27;8.63;;;1.90;;
57395;SDS011;43222;52.912;6.940;2022-07-17T02:53:53;5.72;;;1.90;;
57395;SDS011;43222;52.912;6.940;2022-07-17T02:56:19;7.45;;;1.90;;
57395;SDS011;43222;52.912;6.940;2022-07-17T02:58:45;9.23;;;1.98;;
57395;SDS011;43222;52.912;6.940;2022-07-17T03:01:11;7.57;;;1.88;;
57395;SDS011;43222;52.912;6.940;2022-07-17T03:03:37;7.40;;;2.17;;
57395;SDS011;43222;52.912;6.940;2022-07-17T03:06:03;5.72;;;1.83;;
57395;SDS011;43222;52.912;6.940;2022-07-17T03:08:29;7.38;;;2.30;;
57395;SDS011;43222;52.912;6.940;2022-07-17T03:10:55;5.00;;;1.77;;
57395;SDS011;43222;52.912;6.940;2022-07-17T03:13:22;5.22;;;2.15;;
57395;SDS011;43222;52.912;6.940;2022-07-17T03:15:48;5.70;;;2.00;;
57395;SDS011;43222;52.912;6.940;2022-07-17T03:18:14;5.57;;;1.88;;
57395;SDS011;43222;52.912;6.940;2022-07-17T03:20:40;6.78;;;2.53;;
57395;SDS011;43222;52.912;6.940;2022-07-17T03:23:06;5.88;;;1.83;;
57395;SDS011;43222;52.912;6.940;2022-07-17T03:25:32;8.23;;;2.05;;
57395;SDS011;43222;52.912;6.940;2022-07-17T03:27:58;8.32;;;2.40;;
57395;SDS011;43222;52.912;6.940;2022-07-17T03:30:24;5.32;;;1.88;;
57395;SDS011;43222;52.912;6.940;2022-07-17T03:32:50;7.82;;;2.08;;
57395;SDS011;43222;52.912;6.940;2022-07-17T03:35:16;6.28;;;1.90;;
57395;SDS011;43222;52.912;6.940;2022-07-17T03:37:42;5.75;;;2.55;;
57395;SDS011;43222;52.912;6.940;2022-07-17T03:40:09;5.90;;;2.10;;
57395;SDS011;43222;52.912;6.940;2022-07-17T03:42:35;7.30;;;2.13;;
57395;SDS011;43222;52.912;6.940;2022-07-17T03:45:02;10.15;;;2.17;;
57395;SDS011;43222;52.912;6.940;2022-07-17T03:47:28;4.85;;;1.90;;
57395;SDS011;43222;52.912;6.940;2022-07-17T03:49:54;5.88;;;1.90;;
57395;SDS011;43222;52.912;6.940;2022-07-17T03:52:20;8.50;;;2.13;;
57395;SDS011;43222;52.912;6.940;2022-07-17T03:54:46;6.07;;;1.67;;
57395;SDS011;43222;52.912;6.940;2022-07-17T03:57:12;5.80;;;1.95;;
57395;SDS011;43222;52.912;6.940;2022-07-17T03:59:38;4.55;;;1.70;;
57395;SDS011;43222;52.912;6.940;2022-07-17T04:02:04;6.88;;;1.98;;
57395;SDS011;43222;52.912;6.940;2022-07-17T04:04:30;4.65;;;1.80;;
57395;SDS011;43222;52.912;6.940;2022-07-17T04:06:56;7.22;;;2.00;;
57395;SDS011;43222;52.912;6.940;2022-07-17T04:09:22;6.28;;;1.83;;
57395;SDS011;43222;52.912;6.940;2022-07-17T04:11:48;4.50;;;1.90;;
57395;SDS011;43222;52.912;6.940;2022-07-17T04:14:14;4.43;;;1.92;;
57395;SDS011;43222;52.912;6.940;2022-07-17T04:16:40;5.90;;;2.00;;
57395;SDS011;43222;52.912;6.940;2022-07-17T04:19:06;7.20;;;1.77;;
57395;SDS011;43222;52.912;6.940;2022-07-17T04:21:32;5.07;;;1.50;;
57395;SDS011;43222;52.912;6.940;2022-07-17T04:23:58;4.45;;;2.00;;
57395;SDS011;43222;52.912;6.940;2022-07-17T04:26:24;5.40;;;2.20;;
57395;SDS011;43222;52.912;6.940;2022-07-17T04:28:50;10.20;;;2.88;;
57395;SDS011;43222;52.912;6.940;2022-07-17T04:31:19;7.15;;;2.78;;
57395;SDS011;43222;52.912;6.940;2022-07-17T04:33:45;5.88;;;1.90;;
57395;SDS011;43222;52.912;6.940;2022-07-17T04:36:11;6.05;;;1.88;;
57395;SDS011;43222;52.912;6.940;2022-07-17T04:38:37;4.90;;;1.50;;
57395;SDS011;43222;52.912;6.940;2022-07-17T04:41:03;4.53;;;1.67;;
57395;SDS011;43222;52.912;6.940;2022-07-17T04:43:29;7.38;;;2.30;;
57395;SDS011;43222;52.912;6.940;2022-07-17T04:45:55;6.43;;;2.28;;
57395;SDS011;43222;52.912;6.940;2022-07-17T04:48:21;6.20;;;2.20;;
57395;SDS011;43222;52.912;6.940;2022-07-17T04:50:47;7.13;;;2.30;;
57395;SDS011;43222;52.912;6.940;2022-07-17T04:53:13;6.30;;;2.22;;
57395;SDS011;43222;52.912;6.940;2022-07-17T04:55:40;9.45;;;2.40;;
57395;SDS011;43222;52.912;6.940;2022-07-17T04:58:06;5.15;;;2.30;;
57395;SDS011;43222;52.912;6.940;2022-07-17T05:00:32;7.47;;;2.05;;
57395;SDS011;43222;52.912;6.940;2022-07-17T05:02:58;5.40;;;1.92;;
57395;SDS011;43222;52.912;6.940;2022-07-17T05:05:25;4.63;;;2.00;;
57395;SDS011;43222;52.912;6.940;2022-07-17T05:07:51;4.80;;;1.88;;
57395;SDS011;43222;52.912;6.940;2022-07-17T05:10:18;7.15;;;2.22;;
57395;SDS011;43222;52.912;6.940;2022-07-17T05:12:44;5.80;;;2.22;;
57395;SDS011;43222;52.912;6.940;2022-07-17T05:15:10;8.80;;;2.13;;
57395;SDS011;43222;52.912;6.940;2022-07-17T05:17:36;5.88;;;1.90;;
57395;SDS011;43222;52.912;6.940;2022-07-17T05:20:02;5.43;;;2.25;;
57395;SDS011;43222;52.912;6.940;2022-07-17T05:22:28;5.47;;;2.10;;
57395;SDS011;43222;52.912;6.940;2022-07-17T05:24:54;6.53;;;2.10;;
57395;SDS011;43222;52.912;6.940;2022-07-17T05:27:20;7.57;;;2.17;;
57395;SDS011;43222;52.912;6.940;2022-07-17T05:29:47;9.20;;;2.70;;
57395;SDS011;43222;52.912;6.940;2022-07-17T05:32:13;13.07;;;4.88;;
57395;SDS011;43222;52.912;6.940;2022-07-17T05:34:39;8.10;;;2.53;;
57395;SDS011;43222;52.912;6.940;2022-07-17T05:37:05;6.50;;;2.20;;
57395;SDS011;43222;52.912;6.940;2022-07-17T05:39:31;5.82;;;2.00;;
57395;SDS011;43222;52.912;6.940;2022-07-17T05:41:57;7.90;;;1.90;;
57395;SDS011;43222;52.912;6.940;2022-07-17T05:44:23;8.00;;;2.00;;
57395;SDS011;43222;52.912;6.940;2022-07-17T05:46:49;7.68;;;1.83;;
57395;SDS011;43222;52.912;6.940;2022-07-17T05:49:15;4.78;;;1.60;;
57395;SDS011;43222;52.912;6.940;2022-07-17T05:51:41;7.07;;;1.88;;
57395;SDS011;43222;52.912;6.940;2022-07-17T05:54:07;8.57;;;1.83;;
57395;SDS011;43222;52.912;6.940;2022-07-17T05:56:33;8.30;;;1.83;;
57395;SDS011;43222;52.912;6.940;2022-07-17T05:58:59;6.72;;;1.70;;
57395;SDS011;43222;52.912;6.940;2022-07-17T06:01:25;11.25;;;2.10;;
57395;SDS011;43222;52.912;6.940;2022-07-17T06:03:51;13.60;;;2.33;;
57395;SDS011;43222;52.912;6.940;2022-07-17T06:06:17;8.05;;;1.52;;
57395;SDS011;43222;52.912;6.940;2022-07-17T06:08:43;8.63;;;2.00;;
57395;SDS011;43222;52.912;6.940;2022-07-17T06:11:09;6.72;;;1.75;;
57395;SDS011;43222;52.912;6.940;2022-07-17T06:13:35;7.47;;;1.90;;
57395;SDS011;43222;52.912;6.940;2022-07-17T06:16:01;5.93;;;1.48;;
57395;SDS011;43222;52.912;6.940;2022-07-17T06:18:27;10.23;;;2.10;;
57395;SDS011;43222;52.912;6.940;2022-07-17T06:20:53;4.97;;;1.70;;
57395;SDS011;43222;52.912;6.940;2022-07-17T06:23:19;4.90;;;1.65;;
57395;SDS011;43222;52.912;6.940;2022-07-17T06:25:45;6.13;;;1.80;;
57395;SDS011;43222;52.912;6.940;2022-07-17T06:28:11;6.85;;;1.95;;
57395;SDS011;43222;52.912;6.940;2022-07-17T06:30:37;8.98;;;1.95;;
57395;SDS011;43222;52.912;6.940;2022-07-17T06:33:03;6.90;;;1.88;;
57395;SDS011;43222;52.912;6.940;2022-07-17T06:35:29;8.30;;;1.88;;
57395;SDS011;43222;52.912;6.940;2022-07-17T06:37:58;8.20;;;1.77;;
57395;SDS011;43222;52.912;6.940;2022-07-17T06:40:24;8.85;;;1.50;;
57395;SDS011;43222;52.912;6.940;2022-07-17T06:42:50;7.00;;;1.80;;
57395;SDS011;43222;52.912;6.940;2022-07-17T06:45:16;6.40;;;1.50;;
57395;SDS011;43222;52.912;6.940;2022-07-17T06:47:42;8.48;;;1.30;;
57395;SDS011;43222;52.912;6.940;2022-07-17T06:50:08;6.70;;;1.23;;
57395;SDS011;43222;52.912;6.940;2022-07-17T06:52:35;6.88;;;1.25;;
57395;SDS011;43222;52.912;6.940;2022-07-17T06:55:01;7.80;;;1.45;;
57395;SDS011;43222;52.912;6.940;2022-07-17T06:57:27;5.80;;;1.30;;
57395;SDS011;43222;52.912;6.940;2022-07-17T06:59:53;8.57;;;1.38;;
57395;SDS011;43222;52.912;6.940;2022-07-17T07:02:19;7.45;;;1.40;;
57395;SDS011;43222;52.912;6.940;2022-07-17T07:04:45;5.93;;;1.25;;
57395;SDS011;43222;52.912;6.940;2022-07-17T07:07:11;8.23;;;1.40;;
57395;SDS011;43222;52.912;6.940;2022-07-17T07:09:37;5.97;;;1.10;;
57395;SDS011;43222;52.912;6.940;2022-07-17T07:12:03;7.80;;;1.52;;
57395;SDS011;43222;52.912;6.940;2022-07-17T07:14:30;7.15;;;1.13;;
57395;SDS011;43222;52.912;6.940;2022-07-17T07:16:56;7.75;;;1.60;;
57395;SDS011;43222;52.912;6.940;2022-07-17T07:19:22;6.60;;;1.40;;
57395;SDS011;43222;52.912;6.940;2022-07-17T07:21:48;6.30;;;1.23;;
57395;SDS011;43222;52.912;6.940;2022-07-17T07:24:14;5.63;;;1.10;;
57395;SDS011;43222;52.912;6.940;2022-07-17T07:26:40;6.72;;;1.10;;
57395;SDS011;43222;52.912;6.940;2022-07-17T07:29:06;6.13;;;1.20;;
57395;SDS011;43222;52.912;6.940;2022-07-17T07:31:32;6.80;;;1.42;;
57395;SDS011;43222;52.912;6.940;2022-07-17T07:33:58;5.38;;;1.30;;
57395;SDS011;43222;52.912;6.940;2022-07-17T07:36:24;8.95;;;1.33;;
57395;SDS011;43222;52.912;6.940;2022-07-17T07:38:50;5.15;;;1.38;;
57395;SDS011;43222;52.912;6.940;2022-07-17T07:41:16;8.70;;;1.83;;
57395;SDS011;43222;52.912;6.940;2022-07-17T07:43:42;6.90;;;1.33;;
57395;SDS011;43222;52.912;6.940;2022-07-17T07:46:08;7.57;;;1.48;;
57395;SDS011;43222;52.912;6.940;2022-07-17T07:48:34;7.50;;;1.45;;
57395;SDS011;43222;52.912;6.940;2022-07-17T07:51:00;7.07;;;1.10;;
57395;SDS011;43222;52.912;6.940;2022-07-17T07:53:27;9.18;;;1.20;;
57395;SDS011;43222;52.912;6.940;2022-07-17T07:55:53;8.57;;;1.33;;
57395;SDS011;43222;52.912;6.940;2022-07-17T07:58:19;9.77;;;1.30;;
57395;SDS011;43222;52.912;6.940;2022-07-17T08:00:45;6.18;;;1.20;;
57395;SDS011;43222;52.912;6.940;2022-07-17T08:03:11;8.35;;;1.25;;
57395;SDS011;43222;52.912;6.940;2022-07-17T08:05:38;5.93;;;1.20;;
57395;SDS011;43222;52.912;6.940;2022-07-17T08:08:04;6.45;;;1.10;;
57395;SDS011;43222;52.912;6.940;2022-07-17T08:10:30;7.45;;;1.20;;
57395;SDS011;43222;52.912;6.940;2022-07-17T08:12:56;8.43;;;1.00;;
57395;SDS011;43222;52.912;6.940;2022-07-17T08:15:22;5.68;;;1.20;;
57395;SDS011;43222;52.912;6.940;2022-07-17T08:17:49;6.45;;;1.30;;
57395;SDS011;43222;52.912;6.940;2022-07-17T08:20:15;6.10;;;1.17;;
57395;SDS011;43222;52.912;6.940;2022-07-17T08:22:42;9.00;;;1.58;;
57395;SDS011;43222;52.912;6.940;2022-07-17T08:25:08;10.75;;;1.40;;
57395;SDS011;43222;52.912;6.940;2022-07-17T08:27:38;7.40;;;1.30;;
57395;SDS011;43222;52.912;6.940;2022-07-17T08:30:05;9.05;;;1.27;;
57395;SDS011;43222;52.912;6.940;2022-07-17T08:32:31;9.27;;;1.20;;
57395;SDS011;43222;52.912;6.940;2022-07-17T08:34:57;7.05;;;1.40;;
57395;SDS011;43222;52.912;6.940;2022-07-17T08:37:23;6.25;;;1.13;;
57395;SDS011;43222;52.912;6.940;2022-07-17T08:39:50;6.03;;;1.30;;
57395;SDS011;43222;52.912;6.940;2022-07-17T08:42:16;8.52;;;1.25;;
57395;SDS011;43222;52.912;6.940;2022-07-17T08:44:42;8.50;;;1.10;;
57395;SDS011;43222;52.912;6.940;2022-07-17T08:47:12;7.95;;;1.40;;
57395;SDS011;43222;52.912;6.940;2022-07-17T08:49:40;6.95;;;1.05;;
57395;SDS011;43222;52.912;6.940;2022-07-17T08:52:07;7.28;;;1.30;;
57395;SDS011;43222;52.912;6.940;2022-07-17T08:54:33;7.38;;;1.40;;
57395;SDS011;43222;52.912;6.940;2022-07-17T08:56:59;10.38;;;1.60;;
57395;SDS011;43222;52.912;6.940;2022-07-17T08:59:25;6.05;;;1.20;;
57395;SDS011;43222;52.912;6.940;2022-07-17T09:01:51;8.23;;;1.10;;
57395;SDS011;43222;52.912;6.940;2022-07-17T09:04:17;6.55;;;1.35;;
57395;SDS011;43222;52.912;6.940;2022-07-17T09:06:43;6.43;;;1.17;;
57395;SDS011;43222;52.912;6.940;2022-07-17T09:09:13;5.93;;;1.30;;
57395;SDS011;43222;52.912;6.940;2022-07-17T09:11:46;9.30;;;1.40;;
57395;SDS011;43222;52.912;6.940;2022-07-17T09:14:12;5.80;;;1.10;;
57395;SDS011;43222;52.912;6.940;2022-07-17T09:16:51;9.43;;;1.35;;
57395;SDS011;43222;52.912;6.940;2022-07-17T09:22:05;6.97;;;1.33;;
57395;SDS011;43222;52.912;6.940;2022-07-17T09:27:07;9.65;;;1.30;;
57395;SDS011;43222;52.912;6.940;2022-07-17T09:29:33;6.07;;;1.20;;
57395;SDS011;43222;52.912;6.940;2022-07-17T09:31:59;5.90;;;1.05;;
57395;SDS011;43222;52.912;6.940;2022-07-17T09:34:25;6.97;;;1.20;;
57395;SDS011;43222;52.912;6.940;2022-07-17T09:37:01;5.05;;;1.08;;
57395;SDS011;43222;52.912;6.940;2022-07-17T09:39:36;5.82;;;1.00;;
57395;SDS011;43222;52.912;6.940;2022-07-17T09:42:03;5.82;;;1.20;;
57395;SDS011;43222;52.912;6.940;2022-07-17T09:44:29;6.00;;;0.90;;
57395;SDS011;43222;52.912;6.940;2022-07-17T09:46:54;7.05;;;1.10;;
57395;SDS011;43222;52.912;6.940;2022-07-17T09:49:20;7.93;;;1.25;;
57395;SDS011;43222;52.912;6.940;2022-07-17T09:51:49;5.32;;;1.23;;
57395;SDS011;43222;52.912;6.940;2022-07-17T09:54:15;6.75;;;1.10;;
57395;SDS011;43222;52.912;6.940;2022-07-17T09:56:45;5.65;;;1.00;;
57395;SDS011;43222;52.912;6.940;2022-07-17T09:59:12;5.78;;;1.20;;
57395;SDS011;43222;52.912;6.940;2022-07-17T10:01:39;5.90;;;1.10;;
57395;SDS011;43222;52.912;6.940;2022-07-17T10:04:06;6.40;;;1.20;;
57395;SDS011;43222;52.912;6.940;2022-07-17T10:06:32;8.43;;;1.27;;
57395;SDS011;43222;52.912;6.940;2022-07-17T10:08:58;5.40;;;1.02;;
57395;SDS011;43222;52.912;6.940;2022-07-17T10:11:25;6.93;;;1.35;;
57395;SDS011;43222;52.912;6.940;2022-07-17T10:13:53;5.60;;;1.13;;
57395;SDS011;43222;52.912;6.940;2022-07-17T10:16:23;7.35;;;1.10;;
57395;SDS011;43222;52.912;6.940;2022-07-17T10:18:50;6.57;;;1.25;;
57395;SDS011;43222;52.912;6.940;2022-07-17T10:21:20;6.55;;;1.52;;
57395;SDS011;43222;52.912;6.940;2022-07-17T10:26:37;7.45;;;1.40;;
57395;SDS011;43222;52.912;6.940;2022-07-17T10:31:50;5.57;;;1.30;;
57395;SDS011;43222;52.912;6.940;2022-07-17T10:34:17;6.05;;;1.48;;
57395;SDS011;43222;52.912;6.940;2022-07-17T10:36:44;6.22;;;1.33;;
57395;SDS011;43222;52.912;6.940;2022-07-17T10:39:13;6.07;;;1.10;;
57395;SDS011;43222;52.912;6.940;2022-07-17T10:41:40;6.50;;;1.20;;
57395;SDS011;43222;52.912;6.940;2022-07-17T10:44:07;7.43;;;1.40;;
57395;SDS011;43222;52.912;6.940;2022-07-17T10:46:33;7.60;;;1.30;;
57395;SDS011;43222;52.912;6.940;2022-07-17T10:49:00;6.40;;;1.20;;
57395;SDS011;43222;52.912;6.940;2022-07-17T10:51:30;6.90;;;1.25;;
57395;SDS011;43222;52.912;6.940;2022-07-17T10:53:57;5.03;;;1.20;;
57395;SDS011;43222;52.912;6.940;2022-07-17T10:56:26;6.88;;;1.55;;
57395;SDS011;43222;52.912;6.940;2022-07-17T10:58:53;6.40;;;1.35;;
57395;SDS011;43222;52.912;6.940;2022-07-17T11:01:20;5.30;;;1.02;;
57395;SDS011;43222;52.912;6.940;2022-07-17T11:03:51;8.68;;;1.30;;
57395;SDS011;43222;52.912;6.940;2022-07-17T11:06:24;7.88;;;1.48;;
57395;SDS011;43222;52.912;6.940;2022-07-17T11:11:18;6.57;;;1.20;;
57395;SDS011;43222;52.912;6.940;2022-07-17T11:13:44;6.38;;;1.20;;
57395;SDS011;43222;52.912;6.940;2022-07-17T11:16:10;6.60;;;1.38;;
57395;SDS011;43222;52.912;6.940;2022-07-17T11:18:37;7.55;;;1.40;;
57395;SDS011;43222;52.912;6.940;2022-07-17T11:21:11;6.22;;;1.58;;
57395;SDS011;43222;52.912;6.940;2022-07-17T11:23:37;5.85;;;1.15;;
57395;SDS011;43222;52.912;6.940;2022-07-17T11:26:15;4.43;;;1.10;;
57395;SDS011;43222;52.912;6.940;2022-07-17T11:28:42;8.23;;;1.67;;
57395;SDS011;43222;52.912;6.940;2022-07-17T11:31:22;5.70;;;1.30;;
57395;SDS011;43222;52.912;6.940;2022-07-17T11:33:53;7.45;;;1.35;;
57395;SDS011;43222;52.912;6.940;2022-07-17T11:38:45;5.47;;;1.20;;
57395;SDS011;43222;52.912;6.940;2022-07-17T11:41:11;6.38;;;1.45;;
57395;SDS011;43222;52.912;6.940;2022-07-17T11:43:41;6.50;;;1.50;;
57395;SDS011;43222;52.912;6.940;2022-07-17T11:46:07;4.43;;;1.73;;
57395;SDS011;43222;52.912;6.940;2022-07-17T11:48:33;6.47;;;1.63;;
57395;SDS011;43222;52.912;6.940;2022-07-17T11:50:59;6.95;;;1.70;;
57395;SDS011;43222;52.912;6.940;2022-07-17T11:53:32;4.40;;;1.20;;
57395;SDS011;43222;52.912;6.940;2022-07-17T11:55:58;4.32;;;1.20;;
57395;SDS011;43222;52.912;6.940;2022-07-17T11:58:25;6.00;;;1.50;;
57395;SDS011;43222;52.912;6.940;2022-07-17T12:01:02;6.03;;;1.40;;
57395;SDS011;43222;52.912;6.940;2022-07-17T12:03:29;6.05;;;1.60;;
57395;SDS011;43222;52.912;6.940;2022-07-17T12:05:55;5.53;;;1.60;;
57395;SDS011;43222;52.912;6.940;2022-07-17T12:08:21;4.90;;;1.38;;
57395;SDS011;43222;52.912;6.940;2022-07-17T12:10:47;5.78;;;1.60;;
57395;SDS011;43222;52.912;6.940;2022-07-17T12:13:13;7.30;;;1.63;;
57395;SDS011;43222;52.912;6.940;2022-07-17T12:18:05;5.40;;;1.40;;
57395;SDS011;43222;52.912;6.940;2022-07-17T12:20:42;6.22;;;1.48;;
57395;SDS011;43222;52.912;6.940;2022-07-17T12:23:08;5.65;;;1.63;;
57395;SDS011;43222;52.912;6.940;2022-07-17T12:25:34;4.15;;;1.40;;
57395;SDS011;43222;52.912;6.940;2022-07-17T12:28:00;6.03;;;1.48;;
57395;SDS011;43222;52.912;6.940;2022-07-17T12:30:26;5.10;;;1.35;;
57395;SDS011;43222;52.912;6.940;2022-07-17T12:32:53;6.45;;;1.70;;
57395;SDS011;43222;52.912;6.940;2022-07-17T12:35:19;4.50;;;1.45;;
57395;SDS011;43222;52.912;6.940;2022-07-17T12:37:45;3.95;;;1.23;;
57395;SDS011;43222;52.912;6.940;2022-07-17T12:40:11;6.25;;;1.55;;
57395;SDS011;43222;52.912;6.940;2022-07-17T12:42:37;6.18;;;1.70;;
57395;SDS011;43222;52.912;6.940;2022-07-17T12:45:03;5.55;;;1.52;;
57395;SDS011;43222;52.912;6.940;2022-07-17T12:47:30;7.00;;;1.85;;
57395;SDS011;43222;52.912;6.940;2022-07-17T12:49:56;5.00;;;1.40;;
57395;SDS011;43222;52.912;6.940;2022-07-17T12:52:22;6.18;;;1.55;;
57395;SDS011;43222;52.912;6.940;2022-07-17T12:54:48;5.85;;;1.55;;
57395;SDS011;43222;52.912;6.940;2022-07-17T12:57:14;5.88;;;1.50;;
57395;SDS011;43222;52.912;6.940;2022-07-17T12:59:40;5.57;;;1.80;;
57395;SDS011;43222;52.912;6.940;2022-07-17T13:02:06;5.63;;;1.70;;
57395;SDS011;43222;52.912;6.940;2022-07-17T13:04:32;7.25;;;1.80;;
57395;SDS011;43222;52.912;6.940;2022-07-17T13:06:58;8.70;;;1.95;;
57395;SDS011;43222;52.912;6.940;2022-07-17T13:09:24;7.60;;;1.90;;
57395;SDS011;43222;52.912;6.940;2022-07-17T13:11:50;4.53;;;1.52;;
57395;SDS011;43222;52.912;6.940;2022-07-17T13:14:17;5.63;;;1.90;;
57395;SDS011;43222;52.912;6.940;2022-07-17T13:16:43;5.75;;;1.85;;
57395;SDS011;43222;52.912;6.940;2022-07-17T13:19:09;7.20;;;1.88;;
57395;SDS011;43222;52.912;6.940;2022-07-17T13:21:36;5.82;;;2.10;;
57395;SDS011;43222;52.912;6.940;2022-07-17T13:24:02;5.15;;;2.00;;
57395;SDS011;43222;52.912;6.940;2022-07-17T13:26:28;5.35;;;1.80;;
57395;SDS011;43222;52.912;6.940;2022-07-17T13:28:54;5.35;;;1.85;;
57395;SDS011;43222;52.912;6.940;2022-07-17T13:31:20;5.60;;;1.70;;
57395;SDS011;43222;52.912;6.940;2022-07-17T13:33:46;7.28;;;2.00;;
57395;SDS011;43222;52.912;6.940;2022-07-17T13:36:12;6.57;;;2.03;;
57395;SDS011;43222;52.912;6.940;2022-07-17T13:38:38;5.95;;;2.35;;
57395;SDS011;43222;52.912;6.940;2022-07-17T13:41:04;6.22;;;2.42;;
57395;SDS011;43222;52.912;6.940;2022-07-17T13:43:30;5.53;;;2.20;;
57395;SDS011;43222;52.912;6.940;2022-07-17T13:45:56;4.47;;;2.17;;
57395;SDS011;43222;52.912;6.940;2022-07-17T13:48:22;5.68;;;2.53;;
57395;SDS011;43222;52.912;6.940;2022-07-17T13:50:48;6.68;;;2.75;;
57395;SDS011;43222;52.912;6.940;2022-07-17T13:53:14;6.65;;;2.90;;
57395;SDS011;43222;52.912;6.940;2022-07-17T13:55:41;7.05;;;2.50;;
57395;SDS011;43222;52.912;6.940;2022-07-17T13:58:07;7.90;;;2.50;;
57395;SDS011;43222;52.912;6.940;2022-07-17T14:00:33;7.55;;;3.03;;
57395;SDS011;43222;52.912;6.940;2022-07-17T14:02:59;5.90;;;2.60;;
57395;SDS011;43222;52.912;6.940;2022-07-17T14:05:25;6.50;;;2.80;;
57395;SDS011;43222;52.912;6.940;2022-07-17T14:07:51;6.13;;;2.85;;
57395;SDS011;43222;52.912;6.940;2022-07-17T14:10:17;6.60;;;3.38;;
57395;SDS011;43222;52.912;6.940;2022-07-17T14:12:43;7.25;;;2.83;;
57395;SDS011;43222;52.912;6.940;2022-07-17T14:15:09;6.38;;;2.80;;
57395;SDS011;43222;52.912;6.940;2022-07-17T14:17:36;5.35;;;2.78;;
57395;SDS011;43222;52.912;6.940;2022-07-17T14:20:02;7.50;;;3.00;;
57395;SDS011;43222;52.912;6.940;2022-07-17T14:22:28;6.43;;;2.88;;
57395;SDS011;43222;52.912;6.940;2022-07-17T14:24:54;7.32;;;2.85;;
57395;SDS011;43222;52.912;6.940;2022-07-17T14:27:20;6.65;;;3.00;;
57395;SDS011;43222;52.912;6.940;2022-07-17T14:29:47;9.38;;;3.20;;
57395;SDS011;43222;52.912;6.940;2022-07-17T14:32:13;7.75;;;2.92;;
57395;SDS011;43222;52.912;6.940;2022-07-17T14:34:39;6.47;;;2.78;;
57395;SDS011;43222;52.912;6.940;2022-07-17T14:37:05;6.35;;;2.70;;
57395;SDS011;43222;52.912;6.940;2022-07-17T14:39:33;8.13;;;2.63;;
57395;SDS011;43222;52.912;6.940;2022-07-17T14:41:59;7.18;;;2.90;;
57395;SDS011;43222;52.912;6.940;2022-07-17T14:44:25;6.38;;;2.92;;
57395;SDS011;43222;52.912;6.940;2022-07-17T14:46:52;7.07;;;3.40;;
57395;SDS011;43222;52.912;6.940;2022-07-17T14:49:18;7.28;;;3.13;;
57395;SDS011;43222;52.912;6.940;2022-07-17T14:51:44;7.13;;;3.20;;
57395;SDS011;43222;52.912;6.940;2022-07-17T14:54:10;10.40;;;3.05;;
57395;SDS011;43222;52.912;6.940;2022-07-17T14:56:37;7.55;;;2.80;;
57395;SDS011;43222;52.912;6.940;2022-07-17T14:59:03;6.75;;;3.17;;
57395;SDS011;43222;52.912;6.940;2022-07-17T15:01:29;7.07;;;3.22;;